[Jeden Montag | 1830z - 2130z | EDDN] Nürnberg Montag

Zu Eventkalender hinzugefügt: 543 Daten

 

Samy Greve

874505
RG München - Event
RG München - NAV
RG München - Mentor
ATD - Prüfer


Wie in jeder Woche am Nürnberg-Montag lädt Euch die Crew der RG München am "Albrecht-Dürer-Airport" herzlich ab 1930lcl - also 1830z nach Nürnberg ein.

METAR:
EDDN 070850Z 16005KT 9999 FEW007 BKN011 02/01 Q1001 NOSIG

TAF:
EDDN 070500Z 0706/0806 12004KT 9999 SCT007 BKN012 TEMPO 0706/0708 BKN006 BECMG 0708/0711 BKN020 PROB30 TEMPO 0803/0806 1500 BCFG
 
Zuletzt bearbeitet:

Samy Greve

874505
RG München - Event
RG München - NAV
RG München - Mentor
ATD - Prüfer


Es ist wieder Zeit für den Nürnberg Montag! Ab 1830 Zulu ist der Airport wieder :)

Wettermäßig ist es, im Vergleich zu den letzten Wochen, eher ruhiger diese Woche:
TAF: EDDN 141100Z 1412/1512 14010KT 9999 BKN012 BECMG 1412/1414 SCT015 BECMG 1417/1419 12005KT

Wer zum Wochenstart also schon wieder die Schnauze voll hat: Flieger nehmen und Nürnberg besuchen. Wir freuen uns - bis heute Abend!
 
Vielen Dank an alle Lotsen heute Abend, die den kleinen Piepmatz TUI5LT sicher haben landen lassen. Die "Ballermänner und -frauen" in der Kabine waren sehr angetan von dem Flug LEPA-EDDN. Nicht nur in diesen Zeiten ist dieses Hobby durch nichts zu ersetzen. Danke! Es ist einfach toll, daß sich immer so viele Lotsen zusammen finden für die wöchentlichen Events.
 

Samy Greve

874505
RG München - Event
RG München - NAV
RG München - Mentor
ATD - Prüfer


In weniger als einer Stunde, ab 1830z öffnet Nürnberg wieder seine Pforten für euch. Für mind. 3 Stunden ist der Flughafen wieder mit der kompletten ATC Besetzung online.

Bis später!

EDDN 211720Z 14008KT 9999 SCT009 05/03 Q1020 NOSIG
 

Samy Greve

874505
RG München - Event
RG München - NAV
RG München - Mentor
ATD - Prüfer


Zum letzten Mal im Jahr 2020 laden wir euch herzlich zum Start der Woche zum Nürnberg Montag ein! Ab 1930 Lokal ist der Airport wieder für euch erstklassig besetzt und freut sich auf jeglichen VFR und IFR Verkehr. Zusätzlich bieten wir euch heute Abend auch noch die Rennstrecke nach Budapest im Shuttle an. Beide Airports sowie Enroute ATC werden für euch zur Verfügung stehen. Sollte euch diese Strecke zu lang sein, bietet sich wie immer natürlich auch Düsseldorf als Warm Up Runde an.

Für was auch immer ihr euch entscheidet: Wir freuen uns euren Besuch heute Abend!

EDDN 280500Z 2806/2906 12007KT 9999 BKN045 TEMPO 2813/2816 4000 RASN BKN012 PROB40 TEMPO 2816/2820 1400 SN SCT002 BKN008
 
Zuletzt bearbeitet:

Samy Greve

874505
RG München - Event
RG München - NAV
RG München - Mentor
ATD - Prüfer


2021 ist da und selbstverständlich auch der Nürnberg Montag! Ab 1930 Lokal freuen wir uns in Nürnberg mit voller ATC Besetzung wieder auf euren Besuch. Wettermäßig ist heute nichts besonderes, aber der wöchentliche Shuttle mit Düsseldorf ist sicherlich ein super Einstieg in die Woche!

Bis heute Abend!

TAF:
EDDN 040500Z 0406/0506 05003KT 9999 FEW010 BKN020
 

Jan Dylla

1378091
RG München - Event



Guten Morgen zusammen! Es startet eine neue Woche und somit haben wir heute folgerichtig welchen Tag? Den Nürnberg Montag! Ab 1830z ist der Albrecht Dürer Flughafen wieder voll besetzt und freut sich, wie immer, auf euren Besuch.
Wie jede Woche bietet sich ein kleiner Shuttleflug nach, oder von Düsseldorf an.

Aktuell schaut das Wetter noch nicht sonderlich VFR freundlich aus, aber mal sehen, was heute Abend ansteht. Und wer weiß, vielleicht hilft heute Abend ein kleiner Dreh am Wetter Modifikator und schon könnt ihr wie gewohnt um Nürnberg Kreisen, oder einen der vielen Plätze in der Umgebung einen Besuch abstatten.

TAF: EDDN 110500Z 1106/1206 VRB03KT 8000 BKN002 BECMG 1106/1108 2000 BCFG TEMPO 1106/1110 0400 FZFG VV001 BECMG 1109/1111 18005KT 9999 BKN008 BECMG 1111/1113 SCT015

Übersteht den Tag gut und spart euch genügend Energie für heute Abend auf!
 

Samy Greve

874505
RG München - Event
RG München - NAV
RG München - Mentor
ATD - Prüfer

Wie in jeder Woche am Nürnberg-Montag lädt Euch die Crew der RG München am "Albrecht-Dürer-Airport" herzlich ab 1930lcl - 1730z nach Nürnberg ein.

Es bietet sich auch hier wieder die Rennstrecke nach Düsseldorf an.

Das Wetter verspricht leicht winterlich zu werden:
EDDN 180500Z 1806/1906 27007KT 9000 SCT006 BKN010 PROB30 TEMPO 1806/1811 3000 -SN BKN004 PROB40 TEMPO 1812/1818 SCT010 BKN030 TEMPO 1818/1824 3000 -SNRA BKN008 BECMG 1900/1902 BKN040 TEMPO 1904/1906 18003KT
 
Zuletzt bearbeitet:

Samy Greve

874505
RG München - Event
RG München - NAV
RG München - Mentor
ATD - Prüfer


Der Wochenstart steht an und das bedeutet natürlich, dass unser Nürnberg Montag ansteht. Ab 1830Z stehen wir wieder für mindestens 3h mit kompletter ATC Abdeckung für euch in Nürnberg zur Verfügung!

Zusätzlich findet heute unser monatlicher Shuttle mit den Kollegen aus Budapest statt! Wer doch lieber 10 Minuten weniger Fliegen möchte, der findet sich natürlich beim wöchentlichen Shuttle mit Düsseldorf wieder.
Wettermäßig wird es nicht mehr so spannend wie die letzten Tage, aber ein Besuch lohnt sich allemal!

EDDN 250500Z 2506/2606 14005KT 9999 SCT012 BKN020 TEMPO 2507/2520 4000 -SN BKN012 BECMG 2510/2513 28005KT PROB40 TEMPO 2520/2601 2500 -SN BKN007 BECMG 2604/2606 25010KT 3000 -SN BKN007
 
Zuletzt bearbeitet:

Michael Wellner

1024937
VFR - Moderator


Es ist wieder Montag und wie in jeder Woche am Nürnberg-Montag lädt Euch die Crew der RG München am "Albrecht-Dürer-Airport" herzlich ab 1930lcl - also 1830z zu einem Flug von, nach oder um Nürnberg ein.

Leider sind die Sichtbedingungen gerade zum Abend hin nicht gerade dünnblechtauglich, aber vielleicht gibt es ja den einen oder anderen VFR-Piloten, der hier eine Herausforderung sucht. Allen anderen sei dann doch eher CAVOK für den Simulator empfohlen, sofern ihr nicht IFR unterwegs seid.

Als Ziele bieten sich heute neben dem Online-Tag in Düsseldorf (EDDL) zusätzlich Frankfurt (EDDF), Hamburg (EDDH) oder für einen Kurztrip auch der Besuch bei unserem Trainee in München (EDDM) an.

METAR:
EDDN 011020Z 12009KT 9999 -RA FEW018 BKN026 01/M01 Q0995 R10/29//95 NOSIG

TAF:
EDDN 010935Z 0109/0206 11008KT 9999 BKN025 TEMPO 0109/0124 RA TEMPO 0200/0204 4000 -DZRA BKN004 BECMG 0201/0203 23005KT
 
Zuletzt bearbeitet:

Samy Greve

874505
RG München - Event
RG München - NAV
RG München - Mentor
ATD - Prüfer


Zum Start der zweiten Februar Wochen ist auch wieder der Nürnberg Montag am Start! Ab 1830Z bietet der Flughafen Nürnberg wieder eine 1A Besetzung um das für mehr als 3 Stunden.

Das Wetter verspricht die ein oder andere Schneeflocke, aber im Großen und Ganzen keine Besonderheiten

EDDN 080713Z 0807/0906 35004KT 9000 SCT006 BKN025 TEMPO 0807/0816 BKN008 PROB40 TEMPO 0807/0812 4000 -SN BECMG 0816/0818 BKN006 TEMPO 0816/0906 4000 -SN
Natürlich bietet sich heute auch heute die Rennstrecke nach Düsseldorf zum Onlineday dort an.

Wir wünschen wie immer viel Spaß!
 

Samy Greve

874505
RG München - Event
RG München - NAV
RG München - Mentor
ATD - Prüfer


Wie jede Woche laden wir euch auch heute herzlich zum Nürnberg Montag ab 1930 LT ein. Ein voll besetzter Flughafen lädt zum Start der Woche zu vielen Rennstrecke innerhalb Europas ein, mit kompletter ATC Abdeckung. Als Beispiel sind hier die Onlinedays in Düsseldorf oder Budapest zu nennen.

Das Wetter zum Abend dürfte weiterhin winterlich werden:

EDDN 151100Z 1512/1612 14006KT 9999 BKN045 TEMPO 1515/1521 2000 -SN BKN008 PROB40 TEMPO 1518/1521 -FZRA PROB40 TEMPO 1521/1524 -FZDZ BKN01

Wir wünschen viel Spaß!
 
Danke an alle ATC's zwischen EDDW und EDDN. Ich bin gerade gelandet und hatte einen schönen Flug mit voller Abdeckung. Persönliches Highlight für mich: Nachdem ich mir am Wochenende eine halbe Nacht um die Ohren geschlagen habe um CPDLC zum Laufen zu bringen konnte ich es heute erstmals mit Langen Radar nutzen. Hat super funktioniert (ich weiß, es ist nur eine Ergänzung, der Funk hat trotzdem Priorität)!



In dem Sinne freue ich mich auf weitere schöne Flüge mit / bei euch :)
 

Samy Greve

874505
RG München - Event
RG München - NAV
RG München - Mentor
ATD - Prüfer


Der letzte Montag des Februars steht schon an. Also auch der letzte NüMo für den Februar!
Ab 1930 Lokal wird der Flughafen Nürnberg wieder für mindestens 3 Stunden komplett besetzt sein.

Zusätzlich zum wöchentlichen Shuttle mit Düsseldorf haben wir heute auch unseren monatlichen Shuttle mit Budapest im Angebot!

Egal für was ihr euch entscheidet - bis heute Abend! :cool:
 

Samy Greve

874505
RG München - Event
RG München - NAV
RG München - Mentor
ATD - Prüfer


Willkommen zum ersten Montag im März ! Dies bedeutet natürlich auch, dass wir heute Abend in Nürnberg euch herzlich zum Nürnberg Montag einladen. Ab 1930 Uhr lokal sind wir wieder für drei Stunden am Airport mit einer komplett Besetzung für euch am Start!

Wir freuen uns auf euren Besuch heute Abend! :)

EDDN 010500Z 0106/0206 VRB03KT CAVOK BECMG 0108/0110 08008KT BECMG 0119/0121 09003KT PROB40 TEMPO 0203/0206 BKN006
 
Und als kleine Erinnerung ist heute Coburg Brandensteinsebene (EDQC) auch besetzt:
 
Zuletzt bearbeitet:
Willkommen zum ersten Montag im März ! Dies bedeutet natürlich auch, dass wir heute Abend in Nürnberg euch herzlich zum Nürnberg Montag einladen. Ab 1930 Uhr lokal sind wir wieder für drei Stunden am Airport mit einer komplett Besetzung für euch am Start!
... und wieder mal war es ein toller Service! Mein Nachtflug von Bremen hatte bei Vollmond (nachdem ich auf die DOD10-Trans. gecleart wurde) auch seine Reize. Vielen Dank und bis zum nächsten mal :)
 
Oben